createdAt,value
2023-02-08T00:01:23.065Z,73.07
2023-02-08T00:03:51.467Z,81.90
2023-02-08T00:06:20.738Z,81.82
2023-02-08T00:08:49.116Z,89.68
2023-02-08T00:11:19.316Z,87.65
2023-02-08T00:13:47.812Z,91.97
2023-02-08T00:16:18.533Z,95.57
2023-02-08T00:18:46.932Z,86.68
2023-02-08T00:21:16.820Z,88.25
2023-02-08T00:23:45.449Z,87.18
2023-02-08T00:26:14.845Z,87.32
2023-02-08T00:28:44.612Z,87.63
2023-02-08T00:31:13.201Z,82.10
2023-02-08T00:33:41.676Z,84.97
2023-02-08T00:36:11.907Z,81.25
2023-02-08T00:38:40.316Z,84.95
2023-02-08T00:41:08.969Z,84.43
2023-02-08T00:43:37.675Z,80.75
2023-02-08T00:46:08.195Z,75.85
2023-02-08T00:48:36.612Z,80.15
2023-02-08T00:51:07.031Z,74.03
2023-02-08T00:53:37.208Z,78.70
2023-02-08T00:56:06.753Z,78.45
2023-02-08T00:58:36.104Z,82.75
2023-02-08T01:01:07.545Z,85.00
2023-02-08T01:03:36.738Z,77.05
2023-02-08T01:06:08.134Z,83.88
2023-02-08T01:08:36.463Z,79.72
2023-02-08T01:11:07.010Z,79.20
2023-02-08T01:13:35.428Z,87.53
2023-02-08T01:16:10.227Z,79.55
2023-02-08T01:18:38.883Z,77.57
2023-02-08T01:21:09.236Z,75.03
2023-02-08T01:23:38.143Z,68.10
2023-02-08T01:26:07.267Z,73.30
2023-02-08T01:28:36.191Z,70.13
2023-02-08T01:31:09.068Z,68.25
2023-02-08T01:33:37.905Z,71.85
2023-02-08T01:36:07.811Z,68.47
2023-02-08T01:38:36.379Z,70.50
2023-02-08T01:41:06.019Z,67.97
2023-02-08T01:43:44.175Z,72.35
2023-02-08T01:46:14.014Z,61.65
2023-02-08T01:48:42.677Z,62.25
2023-02-08T01:51:16.368Z,59.40
2023-02-08T01:53:45.060Z,56.38
2023-02-08T01:56:17.331Z,58.90
2023-02-08T01:58:49.243Z,61.83
2023-02-08T02:01:19.488Z,58.25
2023-02-08T02:03:48.135Z,56.67
2023-02-08T02:06:19.372Z,59.60
2023-02-08T02:08:52.896Z,61.63
2023-02-08T02:11:22.040Z,57.25
2023-02-08T02:13:51.302Z,57.55
2023-02-08T02:16:21.927Z,55.13
2023-02-08T02:18:50.231Z,61.58
2023-02-08T02:21:32.098Z,55.63
2023-02-08T02:24:25.271Z,55.58
2023-02-08T02:27:26.276Z,58.35
2023-02-08T02:30:22.432Z,57.93
2023-02-08T02:33:01.566Z,60.45
2023-02-08T02:35:34.076Z,59.13
2023-02-08T02:38:09.561Z,62.10
2023-02-08T02:40:45.258Z,69.13
2023-02-08T02:43:36.115Z,66.47
2023-02-08T02:46:07.485Z,62.40
2023-02-08T02:48:42.764Z,57.78
2023-02-08T02:51:14.208Z,63.28
2023-02-08T02:53:47.959Z,68.57
2023-02-08T02:56:20.050Z,68.22
2023-02-08T02:58:48.957Z,66.65
2023-02-08T03:01:26.248Z,71.72
2023-02-08T03:03:57.751Z,64.95
2023-02-08T03:06:35.952Z,67.35
2023-02-08T03:09:30.858Z,67.10
2023-02-08T03:12:05.574Z,68.75
2023-02-08T03:14:43.298Z,69.65
2023-02-08T03:17:22.973Z,63.35
2023-02-08T03:20:00.308Z,65.35
2023-02-08T03:22:36.303Z,66.03
2023-02-08T03:25:09.428Z,61.30
2023-02-08T03:27:41.076Z,67.63
2023-02-08T03:30:13.098Z,61.47
2023-02-08T03:32:44.686Z,68.63
2023-02-08T03:35:18.062Z,64.03
2023-02-08T03:37:48.920Z,66.53
2023-02-08T03:40:19.875Z,71.95
2023-02-08T03:42:49.346Z,54.20
2023-02-08T03:45:21.368Z,66.82
2023-02-08T03:47:51.232Z,65.18
2023-02-08T03:50:22.717Z,68.93
2023-02-08T03:55:23.534Z,65.75
2023-02-08T04:00:23.642Z,69.63
2023-02-08T04:02:56.173Z,72.53
2023-02-08T04:05:26.796Z,68.70
2023-02-08T04:07:55.754Z,65.73
2023-02-08T04:10:24.594Z,65.53
2023-02-08T04:12:52.936Z,63.35
2023-02-08T04:15:22.128Z,64.90
2023-02-08T04:17:50.757Z,63.28
2023-02-08T04:20:19.526Z,61.00
2023-02-08T04:22:49.227Z,60.05
2023-02-08T04:25:18.851Z,57.90
2023-02-08T04:27:47.559Z,68.30
2023-02-08T04:30:16.682Z,64.38
2023-02-08T04:32:45.112Z,61.55
2023-02-08T04:35:13.734Z,65.35
2023-02-08T04:37:42.226Z,85.57
2023-02-08T04:40:13.582Z,79.65
2023-02-08T04:42:41.891Z,86.50
2023-02-08T04:45:11.644Z,65.68
2023-02-08T04:47:40.043Z,70.15
2023-02-08T04:50:08.834Z,71.80
2023-02-08T04:52:37.255Z,64.80
2023-02-08T04:55:06.390Z,75.05
2023-02-08T04:57:36.164Z,71.00
2023-02-08T05:00:05.309Z,63.90
2023-02-08T05:02:33.719Z,63.35
2023-02-08T05:05:02.606Z,61.15
2023-02-08T05:07:31.848Z,63.03
2023-02-08T05:10:00.395Z,60.50
2023-02-08T05:12:28.675Z,55.80
2023-02-08T05:14:58.787Z,51.65
2023-02-08T05:17:27.147Z,46.92
2023-02-08T05:19:55.897Z,53.83
2023-02-08T05:22:24.259Z,53.40
2023-02-08T05:24:52.980Z,52.75
2023-02-08T05:27:21.249Z,54.58
2023-02-08T05:29:50.040Z,52.80
2023-02-08T05:32:20.080Z,54.85
2023-02-08T05:34:49.097Z,54.60
2023-02-08T05:37:17.353Z,55.38
2023-02-08T05:39:45.859Z,59.25
2023-02-08T05:42:14.285Z,55.65
2023-02-08T05:44:42.855Z,58.05
2023-02-08T05:47:11.185Z,58.25
2023-02-08T05:49:41.084Z,63.53
2023-02-08T05:52:09.821Z,55.75
2023-02-08T05:54:38.385Z,63.03
2023-02-08T05:57:07.044Z,57.60
2023-02-08T05:59:35.838Z,67.32
2023-02-08T06:02:04.170Z,60.22
2023-02-08T06:04:32.970Z,60.38
2023-02-08T06:07:02.673Z,57.45
2023-02-08T06:09:31.319Z,60.35
2023-02-08T06:11:59.746Z,63.10
2023-02-08T06:14:28.278Z,67.97
2023-02-08T06:16:56.862Z,63.08
2023-02-08T06:19:25.562Z,63.58
2023-02-08T06:21:54.013Z,60.35
2023-02-08T06:24:25.518Z,68.25
2023-02-08T06:29:22.160Z,61.85
2023-02-08T06:31:50.603Z,56.83
2023-02-08T06:34:19.508Z,61.92
2023-02-08T06:36:47.942Z,57.70
2023-02-08T06:39:16.581Z,69.13
2023-02-08T06:41:46.339Z,62.15
2023-02-08T06:44:14.943Z,63.97
2023-02-08T06:46:43.197Z,66.75
2023-02-08T06:49:12.706Z,67.38
2023-02-08T06:51:41.645Z,69.88
2023-02-08T06:54:11.108Z,72.45
2023-02-08T06:56:39.678Z,75.03
2023-02-08T06:59:09.706Z,68.28
2023-02-08T07:01:38.016Z,67.43
2023-02-08T07:04:07.127Z,72.18
2023-02-08T07:06:35.458Z,76.22
2023-02-08T07:09:04.406Z,70.03
2023-02-08T07:11:33.122Z,76.45
2023-02-08T07:14:01.964Z,69.57
2023-02-08T07:16:31.632Z,74.75
2023-02-08T07:19:00.315Z,70.85
2023-02-08T07:21:28.557Z,76.65
2023-02-08T07:23:57.307Z,66.10
2023-02-08T07:26:25.610Z,67.55
2023-02-08T07:28:54.436Z,68.68
2023-02-08T07:31:23.208Z,67.35
2023-02-08T07:33:53.260Z,62.13
2023-02-08T07:36:21.674Z,62.42
2023-02-08T07:38:50.189Z,68.28
2023-02-08T07:41:18.613Z,60.33
2023-02-08T07:43:47.348Z,63.30
2023-02-08T07:46:17.230Z,58.35
2023-02-08T07:48:45.932Z,64.53
2023-02-08T07:51:15.650Z,60.05
2023-02-08T07:53:44.299Z,59.80
2023-02-08T07:56:12.695Z,62.05
2023-02-08T07:58:41.874Z,60.45
2023-02-08T08:01:21.578Z,60.40
2023-02-08T08:03:51.133Z,56.00
2023-02-08T08:06:21.985Z,59.30
2023-02-08T08:11:23.022Z,52.40
2023-02-08T08:13:52.617Z,62.10
2023-02-08T08:16:21.497Z,56.53
2023-02-08T08:18:50.882Z,49.40
2023-02-08T08:21:20.767Z,48.28
2023-02-08T08:23:49.261Z,55.97
2023-02-08T08:26:19.403Z,50.95
2023-02-08T08:28:48.387Z,54.90
2023-02-08T08:31:18.913Z,58.55
2023-02-08T08:33:48.009Z,51.47
2023-02-08T08:36:16.615Z,46.45
2023-02-08T08:38:46.609Z,44.15
2023-02-08T08:41:17.346Z,54.53
2023-02-08T08:43:46.344Z,48.28
2023-02-08T08:46:15.318Z,35.05
2023-02-08T08:48:43.891Z,47.85
2023-02-08T08:51:12.348Z,43.25
2023-02-08T08:53:40.977Z,33.08
2023-02-08T08:56:10.795Z,26.60
2023-02-08T08:58:39.887Z,24.08
2023-02-08T09:01:08.167Z,28.75
2023-02-08T09:03:37.149Z,23.85
2023-02-08T09:06:05.859Z,22.40
2023-02-08T09:08:35.018Z,24.27
2023-02-08T09:11:07.793Z,22.65
2023-02-08T09:13:38.182Z,19.05
2023-02-08T09:16:09.624Z,22.88
2023-02-08T09:18:38.779Z,22.83
2023-02-08T09:21:07.882Z,22.70
2023-02-08T09:23:36.462Z,23.58
2023-02-08T09:26:05.404Z,32.13
2023-02-08T09:28:34.187Z,24.35
2023-02-08T09:31:10.511Z,22.15
2023-02-08T09:33:39.521Z,23.60
2023-02-08T09:36:08.679Z,26.05
2023-02-08T09:38:37.441Z,24.77
2023-02-08T09:41:18.887Z,24.33
2023-02-08T09:43:53.793Z,28.63
2023-02-08T09:46:26.069Z,25.00
2023-02-08T09:48:57.127Z,25.48
2023-02-08T09:51:31.135Z,27.05
2023-02-08T09:54:02.846Z,26.50
2023-02-08T09:56:36.358Z,19.55
2023-02-08T09:59:06.410Z,28.23
2023-02-08T10:01:37.354Z,30.90
2023-02-08T10:04:16.893Z,33.80
2023-02-08T10:06:45.291Z,25.67
2023-02-08T10:09:16.397Z,25.63
2023-02-08T10:11:52.278Z,23.77
2023-02-08T10:14:36.250Z,27.90
2023-02-08T10:17:14.493Z,39.65
2023-02-08T10:19:55.769Z,23.13
2023-02-08T10:22:30.999Z,30.40
2023-02-08T10:25:26.542Z,28.35
2023-02-08T10:28:08.681Z,25.85
2023-02-08T10:30:41.975Z,33.28
2023-02-08T10:33:19.421Z,24.13
2023-02-08T10:35:50.565Z,24.50
2023-02-08T10:38:25.412Z,30.40
2023-02-08T10:40:56.876Z,29.27
2023-02-08T10:43:30.538Z,31.27
2023-02-08T10:46:04.099Z,27.40
2023-02-08T10:48:47.972Z,29.88
2023-02-08T10:51:21.639Z,29.27
2023-02-08T10:53:50.324Z,29.60
2023-02-08T10:56:38.829Z,28.48
2023-02-08T10:59:13.292Z,28.05
2023-02-08T11:01:42.310Z,28.13
2023-02-08T11:04:13.410Z,25.92
2023-02-08T11:06:43.502Z,22.13
2023-02-08T11:09:25.656Z,24.95
2023-02-08T11:11:55.249Z,25.75
2023-02-08T11:14:40.992Z,31.40
2023-02-08T11:17:26.723Z,22.70
2023-02-08T11:19:56.923Z,24.87
2023-02-08T11:22:31.396Z,26.50
2023-02-08T11:25:01.096Z,26.15
2023-02-08T11:27:35.219Z,26.15
2023-02-08T11:30:23.305Z,25.73
2023-02-08T11:33:19.286Z,23.13
2023-02-08T11:36:03.504Z,21.40
2023-02-08T11:38:34.193Z,20.40
2023-02-08T11:41:04.487Z,22.73
2023-02-08T11:43:35.442Z,25.77
2023-02-08T11:46:05.121Z,21.77
2023-02-08T11:48:41.452Z,26.17
2023-02-08T11:51:10.742Z,27.88
2023-02-08T11:53:41.696Z,27.75
2023-02-08T11:56:18.790Z,27.50
2023-02-08T11:59:06.919Z,29.02
2023-02-08T12:01:37.070Z,32.20
2023-02-08T12:04:09.536Z,26.60
2023-02-08T12:07:07.446Z,22.90
2023-02-08T12:10:17.133Z,24.45
2023-02-08T12:12:55.240Z,39.97
2023-02-08T12:15:32.942Z,44.78
2023-02-08T12:18:10.636Z,19.65
2023-02-08T12:20:42.220Z,25.30
2023-02-08T12:23:37.255Z,67.72
2023-02-08T12:26:14.154Z,19.65
2023-02-08T12:28:51.963Z,29.50
2023-02-08T12:31:27.352Z,22.98
2023-02-08T12:34:05.719Z,29.15
2023-02-08T12:37:11.662Z,23.60
2023-02-08T12:40:03.008Z,23.80
2023-02-08T12:42:41.667Z,27.10
2023-02-08T12:45:24.576Z,26.25
2023-02-08T12:48:04.734Z,25.73
2023-02-08T12:50:39.881Z,23.42
2023-02-08T12:53:19.090Z,24.98
2023-02-08T12:55:47.953Z,46.33
2023-02-08T12:58:26.303Z,32.88
2023-02-08T13:00:56.564Z,29.85
2023-02-08T13:03:35.479Z,25.60
2023-02-08T13:06:06.424Z,23.88
2023-02-08T13:08:41.685Z,34.55
2023-02-08T13:11:20.079Z,37.08
2023-02-08T13:13:59.985Z,27.08
2023-02-08T13:16:31.482Z,23.95
2023-02-08T13:19:09.437Z,28.63
2023-02-08T13:21:41.988Z,27.25
2023-02-08T13:24:33.230Z,23.77
2023-02-08T13:27:01.858Z,28.17
2023-02-08T13:29:31.132Z,26.08
2023-02-08T13:32:02.444Z,28.83
2023-02-08T13:34:34.968Z,23.40
2023-02-08T13:37:13.477Z,29.95
2023-02-08T13:39:50.409Z,39.88
2023-02-08T13:42:24.794Z,30.75
2023-02-08T13:44:55.675Z,28.98
2023-02-08T13:47:26.958Z,27.27
2023-02-08T13:52:52.403Z,33.42
2023-02-08T13:55:46.172Z,33.83
2023-02-08T13:58:52.943Z,41.90
2023-02-08T14:01:22.788Z,43.25
2023-02-08T14:04:17.445Z,34.72
2023-02-08T14:06:50.155Z,31.02
2023-02-08T14:09:23.538Z,27.85
2023-02-08T14:11:57.731Z,31.00
2023-02-08T14:14:28.689Z,35.58
2023-02-08T14:17:12.748Z,28.60
2023-02-08T14:19:44.372Z,34.95
2023-02-08T14:22:19.094Z,36.13
2023-02-08T14:24:49.983Z,30.80
2023-02-08T14:27:25.234Z,35.38
2023-02-08T14:29:59.012Z,33.17
2023-02-08T14:32:29.365Z,51.45
2023-02-08T14:35:04.081Z,35.57
2023-02-08T14:37:34.451Z,38.97
2023-02-08T14:40:40.506Z,38.57
2023-02-08T14:43:32.344Z,31.20
2023-02-08T14:46:34.319Z,32.35
2023-02-08T14:49:03.403Z,48.70
2023-02-08T14:51:35.419Z,33.33
2023-02-08T14:54:12.184Z,34.10
2023-02-08T14:56:50.573Z,33.88
2023-02-08T14:59:22.584Z,45.70
2023-02-08T15:01:53.826Z,38.10
2023-02-08T15:04:22.696Z,42.95
2023-02-08T15:07:16.914Z,32.28
2023-02-08T15:09:46.132Z,42.47
2023-02-08T15:12:21.696Z,41.03
2023-02-08T15:14:53.903Z,38.83
2023-02-08T15:17:30.939Z,34.03
2023-02-08T15:20:00.284Z,38.97
2023-02-08T15:22:33.937Z,42.50
2023-02-08T15:25:13.042Z,37.90
2023-02-08T15:27:48.321Z,37.15
2023-02-08T15:30:34.034Z,55.50
2023-02-08T15:33:04.614Z,33.05
2023-02-08T15:35:34.743Z,31.85
2023-02-08T15:38:05.897Z,40.05
2023-02-08T15:40:36.081Z,49.90
2023-02-08T15:43:10.499Z,46.75
2023-02-08T15:45:41.108Z,51.20
2023-02-08T15:48:09.877Z,47.80
2023-02-08T15:50:38.570Z,45.60
2023-02-08T15:53:08.685Z,67.97
2023-02-08T15:55:41.383Z,41.55
2023-02-08T15:58:16.151Z,43.03
2023-02-08T16:00:47.463Z,45.70
2023-02-08T16:03:19.661Z,44.97
2023-02-08T16:05:51.515Z,45.58
2023-02-08T16:08:23.060Z,51.30
2023-02-08T16:10:54.150Z,61.17
2023-02-08T16:13:25.329Z,59.15
2023-02-08T16:16:07.127Z,43.05
2023-02-08T16:18:42.091Z,45.03
2023-02-08T16:21:24.920Z,43.63
2023-02-08T16:23:58.213Z,55.78
2023-02-08T16:26:28.869Z,71.05
2023-02-08T16:28:59.811Z,56.58
2023-02-08T16:34:01.813Z,50.85
2023-02-08T16:36:34.899Z,44.90
2023-02-08T16:39:37.658Z,48.03
2023-02-08T16:42:15.983Z,44.05
2023-02-08T16:45:03.548Z,45.25
2023-02-08T16:47:39.206Z,47.72
2023-02-08T16:50:08.538Z,41.97
2023-02-08T16:52:37.535Z,45.72
2023-02-08T16:55:06.770Z,55.50
2023-02-08T16:57:42.777Z,49.95
2023-02-08T17:00:20.093Z,52.38
2023-02-08T17:02:50.324Z,52.33
2023-02-08T17:05:20.466Z,79.00
2023-02-08T17:07:49.951Z,52.87
2023-02-08T17:10:23.435Z,48.13
2023-02-08T17:12:53.387Z,52.08
2023-02-08T17:15:27.006Z,59.13
2023-02-08T17:17:57.881Z,57.70
2023-02-08T17:20:28.684Z,53.63
2023-02-08T17:23:00.122Z,67.07
2023-02-08T17:25:28.921Z,65.60
2023-02-08T17:27:59.461Z,62.45
2023-02-08T17:30:30.755Z,59.00
2023-02-08T17:33:00.716Z,51.60
2023-02-08T17:35:30.027Z,49.55
2023-02-08T17:37:59.489Z,52.58
2023-02-08T17:40:31.312Z,51.80
2023-02-08T17:43:00.370Z,78.80
2023-02-08T17:45:30.006Z,61.30
2023-02-08T17:48:02.216Z,57.70
2023-02-08T17:50:30.654Z,51.47
2023-02-08T17:52:59.349Z,61.92
2023-02-08T17:55:27.625Z,60.75
2023-02-08T17:57:56.172Z,62.95
2023-02-08T18:00:25.369Z,58.83
2023-02-08T18:02:55.904Z,58.47
2023-02-08T18:05:28.000Z,71.35
2023-02-08T18:07:57.874Z,62.05
2023-02-08T18:10:26.527Z,83.95
2023-02-08T18:12:55.497Z,63.97
2023-02-08T18:15:24.229Z,55.85
2023-02-08T18:17:52.967Z,63.33
2023-02-08T18:20:21.640Z,66.25
2023-02-08T18:22:51.461Z,60.45
2023-02-08T18:25:20.725Z,62.00
2023-02-08T18:27:50.293Z,72.28
2023-02-08T18:30:19.117Z,61.65
2023-02-08T18:32:47.800Z,54.97
2023-02-08T18:35:16.410Z,67.53
2023-02-08T18:37:46.626Z,60.55
2023-02-08T18:40:17.599Z,55.85
2023-02-08T18:42:46.314Z,55.70
2023-02-08T18:45:15.354Z,92.80
2023-02-08T18:47:43.866Z,61.42
2023-02-08T18:50:12.831Z,58.15
2023-02-08T18:52:41.459Z,55.00
2023-02-08T18:55:09.897Z,48.85
2023-02-08T18:57:40.288Z,56.72
2023-02-08T19:00:09.879Z,53.85
2023-02-08T19:02:39.619Z,57.42
2023-02-08T19:05:08.933Z,59.25
2023-02-08T19:07:39.070Z,60.95
2023-02-08T19:10:08.693Z,69.00
2023-02-08T19:12:38.500Z,62.33
2023-02-08T19:15:09.343Z,52.75
2023-02-08T19:20:06.979Z,55.15
2023-02-08T19:22:35.648Z,54.63
2023-02-08T19:25:04.063Z,54.67
2023-02-08T19:27:32.917Z,67.15
2023-02-08T19:30:01.254Z,67.38
2023-02-08T19:32:31.348Z,62.42
2023-02-08T19:34:59.838Z,62.90
2023-02-08T19:37:28.615Z,63.55
2023-02-08T19:39:57.056Z,58.85
2023-02-08T19:42:25.632Z,64.95
2023-02-08T19:44:53.925Z,69.53
2023-02-08T19:47:43.455Z,61.33
2023-02-08T19:50:16.252Z,60.13
2023-02-08T19:52:45.145Z,62.00
2023-02-08T19:55:13.768Z,57.03
2023-02-08T19:57:42.358Z,56.10
2023-02-08T20:00:22.977Z,62.55
2023-02-08T20:02:53.136Z,61.30
2023-02-08T20:05:22.830Z,71.03
2023-02-08T20:07:54.831Z,71.68
2023-02-08T20:10:23.228Z,65.60
2023-02-08T20:12:52.246Z,59.28
2023-02-08T20:15:20.442Z,61.25
2023-02-08T20:17:51.840Z,65.70
2023-02-08T20:20:21.543Z,60.88
2023-02-08T20:22:51.657Z,57.22
2023-02-08T20:25:20.245Z,59.85
2023-02-08T20:27:49.322Z,60.25
2023-02-08T20:30:18.295Z,56.90
2023-02-08T20:32:47.341Z,58.42
2023-02-08T20:35:15.914Z,64.97
2023-02-08T20:37:45.033Z,61.72
2023-02-08T20:40:15.687Z,73.63
2023-02-08T20:45:14.497Z,61.65
2023-02-08T20:47:46.861Z,78.30
2023-02-08T20:52:49.293Z,68.03
2023-02-08T20:55:20.041Z,63.65
2023-02-08T21:00:17.632Z,70.90
2023-02-08T21:02:46.344Z,69.65
2023-02-08T21:05:15.720Z,64.07
2023-02-08T21:07:44.431Z,59.95
2023-02-08T21:10:13.292Z,65.55
2023-02-08T21:12:43.573Z,65.25
2023-02-08T21:15:12.270Z,62.78
2023-02-08T21:17:41.298Z,71.13
2023-02-08T21:20:12.096Z,71.00
2023-02-08T21:22:40.691Z,63.40
2023-02-08T21:25:10.275Z,66.68
2023-02-08T21:27:38.815Z,68.10
2023-02-08T21:30:09.522Z,65.40
2023-02-08T21:32:38.041Z,66.35
2023-02-08T21:35:07.132Z,68.15
2023-02-08T21:37:35.765Z,102.00
2023-02-08T21:40:04.113Z,73.53
2023-02-08T21:42:34.421Z,73.28
2023-02-08T21:45:02.774Z,75.40
2023-02-08T21:47:32.842Z,85.38
2023-02-08T21:50:18.918Z,89.32
2023-02-08T21:53:05.553Z,101.13
2023-02-08T21:55:33.948Z,103.65
2023-02-08T21:58:02.531Z,111.68
2023-02-08T22:00:31.455Z,103.97
2023-02-08T22:03:02.028Z,105.53
2023-02-08T22:05:30.728Z,117.60
2023-02-08T22:08:00.506Z,117.05
2023-02-08T22:10:30.680Z,119.43
2023-02-08T22:12:59.665Z,124.35
2023-02-08T22:15:29.730Z,147.05
2023-02-08T22:17:59.804Z,153.02
2023-02-08T22:20:30.282Z,155.68
2023-02-08T22:22:59.057Z,158.88
2023-02-08T22:25:27.398Z,161.70
2023-02-08T22:27:56.142Z,151.95
2023-02-08T22:30:25.647Z,157.68
2023-02-08T22:32:54.744Z,152.02
2023-02-08T22:35:23.040Z,166.68
2023-02-08T22:37:53.078Z,137.48
2023-02-08T22:40:23.025Z,140.25
2023-02-08T22:42:51.806Z,134.60
2023-02-08T22:45:20.169Z,128.70
2023-02-08T22:47:48.951Z,123.35
2023-02-08T22:50:17.451Z,128.10
2023-02-08T22:52:46.168Z,126.22
2023-02-08T22:55:16.254Z,131.90
2023-02-08T22:57:45.466Z,124.70
2023-02-08T23:00:16.502Z,121.68
2023-02-08T23:02:45.203Z,143.35
2023-02-08T23:05:14.676Z,145.00
2023-02-08T23:07:43.315Z,121.35
2023-02-08T23:10:12.857Z,116.15
2023-02-08T23:12:42.762Z,125.68
2023-02-08T23:15:12.043Z,116.80
2023-02-08T23:17:40.630Z,117.30
2023-02-08T23:20:10.069Z,126.03
2023-02-08T23:22:39.257Z,108.20
2023-02-08T23:25:08.125Z,143.85
2023-02-08T23:27:37.692Z,125.00
2023-02-08T23:30:09.660Z,109.93
2023-02-08T23:32:38.767Z,105.18
2023-02-08T23:35:08.129Z,105.32
2023-02-08T23:37:36.402Z,112.90
2023-02-08T23:40:06.438Z,123.50
2023-02-08T23:42:34.756Z,111.43
2023-02-08T23:45:03.648Z,99.90
2023-02-08T23:47:33.411Z,103.60
2023-02-08T23:50:02.052Z,108.32
2023-02-08T23:52:30.558Z,106.18
2023-02-08T23:54:59.166Z,110.07
2023-02-08T23:57:29.659Z,108.38
2023-02-08T23:59:59.802Z,111.13
